Time;durP1;ratioP1;P1;durP2;ratioP2;P2;SDS_P1;SDS_P2;PMS_P1;PMS_P2;Temp;Humidity;BMP_temperature;BMP_pressure;BME280_temperature;BME280_humidity;BME280_pressure;Samples;Min_cycle;Max_cycle;Signal;HPM_P1;HPM_P2
2022/01/06 00:02:14;;;;;;;0.70;0.20;;;4.00;99.90;;;;;;4993664;28;20030;-84
2022/01/06 00:08:22;;;;;;;0.10;0.10;;;4.20;99.90;;;;;;4999535;28;20042;-86
2022/01/06 00:10:57;;;;;;;0.22;0.22;;;4.20;99.90;;;;;;5011926;28;20042;-85
2022/01/06 00:13:36;;;;;;;0.10;0.10;;;4.30;99.90;;;;;;5004044;28;20033;-85
2022/01/06 00:16:16;;;;;;;0.10;0.10;;;4.40;99.90;;;;;;4994191;28;20057;-86
2022/01/06 00:24:35;;;;;;;0.00;0.00;;;4.60;99.90;;;;;;5025482;28;20040;-85
2022/01/06 00:27:01;;;;;;;0.10;0.10;;;4.50;99.90;;;;;;5013951;28;20644;-86
2022/01/06 00:36:56;;;;;;;;;;;;;;;;;;;;;
2022/01/06 00:45:49;;;;;;;0.17;0.17;;;4.70;99.90;;;;;;4970033;28;20039;-84
2022/01/06 00:52:21;;;;;;;0.10;0.10;;;4.70;99.90;;;;;;4993954;28;20041;-85
2022/01/06 00:57:46;;;;;;;0.10;0.10;;;4.70;99.90;;;;;;5014742;28;20127;-85
2022/01/06 01:00:46;;;;;;;0.68;0.17;;;4.80;99.90;;;;;;4997963;28;20026;-85
2022/01/06 01:07:44;;;;;;;;;;;;;;;;;;;;;
2022/01/06 01:24:48;;;;;;;0.28;0.08;;;5.00;99.90;;;;;;4859644;29;20034;-84
2022/01/06 01:34:12;;;;;;;0.55;0.10;;;5.00;99.90;;;;;;4798575;29;20142;-86
2022/01/06 01:37:28;;;;;;;0.20;0.20;;;5.20;99.90;;;;;;4804814;29;20055;-85
2022/01/06 01:41:11;;;;;;;0.25;0.25;;;5.20;99.90;;;;;;4803765;29;20538;-86
2022/01/06 01:51:12;;;;;;;0.15;0.10;;;5.20;99.90;;;;;;4702500;30;20053;-84
2022/01/06 01:54:02;;;;;;;0.05;0.05;;;5.10;99.90;;;;;;4751791;30;20032;-83
2022/01/06 01:56:28;;;;;;;0.10;0.00;;;5.00;99.90;;;;;;4797601;29;20043;-84
2022/01/06 01:59:00;;;;;;;0.20;0.20;;;5.00;99.90;;;;;;4831228;29;20042;-85
2022/01/06 02:01:45;;;;;;;0.13;0.13;;;4.90;99.90;;;;;;4920176;29;20043;-83
2022/01/06 02:04:26;;;;;;;0.00;0.00;;;4.90;99.90;;;;;;4946720;28;20536;-85
2022/01/06 02:07:10;;;;;;;;;;;;;;;;;;;;;
2022/01/06 02:10:25;;;;;;;0.17;0.10;;;5.00;99.90;;;;;;4945828;28;20040;-84
2022/01/06 02:13:40;;;;;;;;;;;;;;;;;;;;;
2022/01/06 02:27:27;;;;;;;0.10;0.10;;;5.00;99.90;;;;;;4727374;30;20052;-84
2022/01/06 02:34:08;;;;;;;0.20;0.20;;;5.00;99.90;;;;;;4659420;30;20053;-83
2022/01/06 02:37:23;;;;;;;0.35;0.10;;;5.00;99.90;;;;;;4730227;30;20142;-83
2022/01/06 03:00:52;;;;;;;0.20;0.20;;;4.90;99.90;;;;;;4871693;29;20076;-83
2022/01/06 03:14:12;;;;;;;1.27;0.68;;;5.00;99.90;;;;;;4857443;29;20076;-83
2022/01/06 03:30:25;;;;;;;0.10;0.10;;;5.10;99.90;;;;;;4840470;29;20170;-83
2022/01/06 04:07:38;;;;;;;0.10;0.10;;;5.40;99.90;;;;;;4677807;28;7593963;-83
2022/01/06 04:10:42;;;;;;;;;;;;;;;;;;;;;
2022/01/06 04:33:38;;;;;;;0.30;0.10;;;5.60;99.90;;;;;;4909349;29;20127;-83
2022/01/06 04:43:06;;;;;;;0.20;0.20;;;5.60;99.90;;;;;;4909397;29;20296;-83
2022/01/06 05:06:21;;;;;;;0.20;0.20;;;5.80;99.90;;;;;;4911181;28;20546;-82
2022/01/06 05:33:00;;;;;;;;;;;;;;;;;;;;;
2022/01/06 05:39:02;;;;;;;0.15;0.10;;;5.90;99.90;;;;;;4898517;29;20039;-82
2022/01/06 05:41:24;;;;;;;0.85;0.50;;;5.80;99.90;;;;;;4911571;28;20032;-81
2022/01/06 05:44:20;;;;;;;0.70;0.57;;;5.90;99.90;;;;;;4911285;29;20025;-83
2022/01/06 05:46:59;;;;;;;0.50;0.32;;;5.90;99.90;;;;;;4907152;28;20060;-83
2022/01/06 05:59:31;;;;;;;0.10;0.10;;;5.90;99.90;;;;;;4904478;29;20033;-83
2022/01/06 06:05:19;;;;;;;;;;;;;;;;;;;;;
2022/01/06 06:12:09;;;;;;;0.20;0.20;;;6.00;99.90;;;;;;4893929;29;20040;-83
2022/01/06 06:25:51;;;;;;;0.20;0.20;;;6.10;99.90;;;;;;4725145;30;20053;-83
2022/01/06 06:48:36;;;;;;;0.85;0.17;;;6.20;99.90;;;;;;4836272;29;20041;-82
2022/01/06 06:51:04;;;;;;;0.40;0.40;;;6.30;99.90;;;;;;4856649;29;20037;-82
2022/01/06 06:58:03;;;;;;;0.80;0.35;;;6.40;99.90;;;;;;4910058;29;20058;-81
2022/01/06 07:00:21;;;;;;;1.85;0.30;;;6.40;99.90;;;;;;4893655;29;20427;-82
2022/01/06 07:07:21;;;;;;;0.70;0.28;;;6.50;99.90;;;;;;4902562;29;20059;-82
2022/01/06 07:13:39;;;;;;;0.30;0.30;;;6.60;99.90;;;;;;4897816;29;20120;-83
2022/01/06 07:19:52;;;;;;;0.40;0.20;;;6.70;99.90;;;;;;4892386;29;20450;-83
2022/01/06 07:22:44;;;;;;;0.20;0.20;;;6.80;99.90;;;;;;4877486;29;20166;-82
2022/01/06 07:25:55;;;;;;;2.88;0.30;;;6.90;99.90;;;;;;4875633;29;20672;-82
2022/01/06 07:28:33;;;;;;;0.10;0.10;;;6.90;99.90;;;;;;4838146;29;20461;-83
2022/01/06 07:31:05;;;;;;;0.30;0.30;;;6.90;99.90;;;;;;4898789;29;20040;-82
2022/01/06 07:34:16;;;;;;;0.20;0.20;;;7.00;99.90;;;;;;4897765;28;20028;-82
2022/01/06 07:47:04;;;;;;;0.17;0.17;;;7.30;99.90;;;;;;4879232;29;20691;-82
2022/01/06 07:49:33;;;;;;;0.20;0.20;;;7.30;99.90;;;;;;4913413;29;20386;-81
2022/01/06 07:52:15;;;;;;;0.25;0.10;;;7.30;99.90;;;;;;4895373;29;20499;-82
2022/01/06 07:54:53;;;;;;;2.42;0.50;;;7.30;99.90;;;;;;4899226;29;20032;-82
2022/01/06 07:57:37;;;;;;;0.20;0.13;;;7.30;99.90;;;;;;4889869;28;20195;-81
2022/01/06 08:00:54;;;;;;;0.30;0.30;;;7.30;99.90;;;;;;4896201;29;20115;-81
2022/01/06 08:03:30;;;;;;;1.55;0.20;;;7.30;99.90;;;;;;4902964;29;20076;-81
2022/01/06 08:05:57;;;;;;;0.30;0.30;;;7.20;99.90;;;;;;4904238;29;20048;-82
2022/01/06 08:08:53;;;;;;;1.00;0.22;;;7.30;99.90;;;;;;4911638;29;20513;-82
2022/01/06 08:12:04;;;;;;;0.52;0.28;;;7.40;99.90;;;;;;4901591;29;20507;-82
2022/01/06 08:15:14;;;;;;;;;;;;;;;;;;;;;
2022/01/06 08:18:06;;;;;;;0.30;0.30;;;7.40;99.90;;;;;;4906876;28;20040;-85
2022/01/06 08:20:56;;;;;;;1.65;0.30;;;7.50;99.90;;;;;;4902580;28;20055;-85
2022/01/06 08:23:34;;;;;;;0.38;0.38;;;7.40;99.90;;;;;;4896932;28;20108;-84
2022/01/06 08:26:06;;;;;;;0.22;0.22;;;7.50;99.90;;;;;;4879500;28;20438;-85
2022/01/06 08:28:34;;;;;;;0.20;0.20;;;7.60;99.90;;;;;;4891590;28;20382;-84
2022/01/06 08:31:00;;;;;;;4.13;0.30;;;7.60;99.90;;;;;;4898071;29;20099;-84
2022/01/06 08:33:47;;;;;;;0.25;0.20;;;7.60;99.90;;;;;;4910820;29;20064;-84
2022/01/06 08:36:30;;;;;;;0.20;0.20;;;7.60;99.90;;;;;;4902228;29;20123;-84
2022/01/06 08:39:02;;;;;;;0.55;0.30;;;7.70;99.90;;;;;;4907876;29;20535;-84
2022/01/06 08:42:11;;;;;;;1.83;0.30;;;7.60;99.90;;;;;;4884842;29;20455;-84
2022/01/06 08:45:01;;;;;;;0.20;0.20;;;7.60;99.90;;;;;;4894668;28;20618;-84
2022/01/06 08:47:24;;;;;;;0.30;0.30;;;7.70;99.90;;;;;;4901825;28;20043;-84
2022/01/06 08:49:53;;;;;;;0.20;0.20;;;7.60;99.90;;;;;;4908181;29;20131;-84
2022/01/06 08:52:29;;;;;;;0.32;0.30;;;7.70;99.90;;;;;;4885768;28;20577;-84
2022/01/06 08:55:13;;;;;;;0.63;0.30;;;7.70;99.90;;;;;;4888126;28;20044;-84
2022/01/06 08:57:39;;;;;;;0.38;0.30;;;7.80;99.90;;;;;;4880259;28;20119;-84
2022/01/06 09:00:13;;;;;;;0.35;0.30;;;7.80;99.90;;;;;;4903451;29;20143;-84
2022/01/06 09:02:39;;;;;;;0.38;0.38;;;7.90;99.90;;;;;;4879522;29;20051;-84
2022/01/06 09:05:14;;;;;;;0.77;0.45;;;7.90;99.90;;;;;;4904076;28;20472;-84
2022/01/06 09:14:26;;;;;;;0.30;0.30;;;7.90;99.90;;;;;;4938371;28;20032;-84
2022/01/06 09:16:53;;;;;;;0.80;0.43;;;7.90;99.90;;;;;;4932107;29;20568;-85
2022/01/06 09:19:39;;;;;;;0.63;0.40;;;8.00;99.90;;;;;;4934617;29;20028;-83
2022/01/06 09:22:16;;;;;;;0.60;0.40;;;7.90;99.90;;;;;;4971919;28;20069;-83
2022/01/06 09:24:53;;;;;;;0.40;0.35;;;7.90;99.90;;;;;;4986065;28;20035;-85
2022/01/06 09:27:44;;;;;;;;;;;;;;;;;;;;;
2022/01/06 09:30:36;;;;;;;0.40;0.40;;;8.00;99.90;;;;;;4976652;28;20027;-85
2022/01/06 09:33:05;;;;;;;0.77;0.43;;;8.10;99.90;;;;;;4975268;28;20033;-85
2022/01/06 09:35:31;;;;;;;0.50;0.50;;;8.10;99.90;;;;;;4980995;28;20551;-84
2022/01/06 09:38:00;;;;;;;0.20;0.20;;;8.00;99.90;;;;;;4991166;28;20034;-83
2022/01/06 09:40:32;;;;;;;0.30;0.20;;;8.00;99.90;;;;;;4982717;28;20085;-84
2022/01/06 09:43:26;;;;;;;0.40;0.40;;;8.00;99.90;;;;;;4989273;28;20647;-84
2022/01/06 09:46:02;;;;;;;1.17;0.40;;;8.00;99.90;;;;;;4991178;28;20104;-83
2022/01/06 09:48:37;;;;;;;0.35;0.35;;;8.20;99.90;;;;;;4983240;28;20023;-85
2022/01/06 09:51:08;;;;;;;0.57;0.30;;;8.20;99.90;;;;;;4979741;28;20085;-84
2022/01/06 09:53:39;;;;;;;0.30;0.20;;;8.10;99.90;;;;;;4973410;28;20539;-84
2022/01/06 09:56:22;;;;;;;0.20;0.20;;;8.20;99.90;;;;;;4980744;28;20072;-91
2022/01/06 09:58:51;;;;;;;;;;;8.30;99.90;;;;;;4993103;28;20104;-84
2022/01/06 10:01:36;;;;;;;0.57;0.40;;;8.30;99.90;;;;;;4986976;28;19905;-84
2022/01/06 10:04:27;;;;;;;0.47;0.40;;;8.40;99.90;;;;;;4980966;28;20034;-84
2022/01/06 10:07:02;;;;;;;0.80;0.40;;;8.60;99.90;;;;;;4976923;28;20058;-84
2022/01/06 10:09:47;;;;;;;0.40;0.30;;;8.60;99.90;;;;;;4985942;28;20037;-83
2022/01/06 10:12:15;;;;;;;0.60;0.40;;;8.60;99.90;;;;;;4993171;28;20031;-85
2022/01/06 10:15:02;;;;;;;0.70;0.20;;;8.60;99.90;;;;;;4989879;28;20101;-84
2022/01/06 10:20:39;;;;;;;0.32;0.30;;;8.90;99.90;;;;;;4957478;28;20045;-83
2022/01/06 10:23:11;;;;;;;1.45;0.50;;;9.10;99.90;;;;;;4976925;28;20022;-85
2022/01/06 10:25:39;;;;;;;0.85;0.60;;;9.10;99.90;;;;;;4976298;28;20493;-84
2022/01/06 10:28:39;;;;;;;0.43;0.40;;;9.20;99.90;;;;;;4991439;28;20454;-85
2022/01/06 10:34:06;;;;;;;1.10;0.50;;;9.20;99.90;;;;;;4990098;28;20021;-84
2022/01/06 10:43:05;;;;;;;0.68;0.65;;;9.30;99.90;;;;;;4966295;28;20023;-83
2022/01/06 10:45:44;;;;;;;1.02;0.55;;;9.50;99.90;;;;;;4966174;28;20097;-86
2022/01/06 10:48:10;;;;;;;2.30;0.50;;;9.60;99.90;;;;;;4961478;28;20121;-93
2022/01/06 10:51:11;;;;;;;0.52;0.50;;;9.70;99.90;;;;;;4992139;28;20061;-89
2022/01/06 10:54:30;;;;;;;0.93;0.55;;;9.60;99.90;;;;;;4997000;28;20093;-86
2022/01/06 10:57:01;;;;;;;0.60;0.40;;;9.70;99.90;;;;;;4971322;28;20121;-92
2022/01/06 10:59:33;;;;;;;1.13;0.60;;;9.60;99.90;;;;;;4994090;28;20034;-84
2022/01/06 11:02:32;;;;;;;0.52;0.52;;;9.70;99.90;;;;;;4980828;28;20023;-85
2022/01/06 11:04:57;;;;;;;0.77;0.65;;;9.60;99.90;;;;;;4974907;28;20126;-84
2022/01/06 11:07:23;;;;;;;0.93;0.70;;;9.50;99.90;;;;;;4922258;28;20139;-85
2022/01/06 11:10:00;;;;;;;1.95;0.35;;;9.50;99.90;;;;;;4882426;28;20526;-87
2022/01/06 11:12:33;;;;;;;0.50;0.50;;;9.50;99.90;;;;;;4885424;28;20123;-84
2022/01/06 11:15:07;;;;;;;0.60;0.60;;;9.40;99.90;;;;;;4880781;29;20561;-88
2022/01/06 11:17:34;;;;;;;1.00;0.52;;;9.30;99.90;;;;;;4889306;28;20059;-88
2022/01/06 11:20:00;;;;;;;0.47;0.40;;;9.20;99.90;;;;;;4884218;28;20032;-86
2022/01/06 11:22:26;;;;;;;0.98;0.50;;;9.10;99.90;;;;;;4883414;28;20390;-86
2022/01/06 11:25:04;;;;;;;0.95;0.60;;;8.90;99.90;;;;;;4901084;29;20127;-86
2022/01/06 11:27:45;;;;;;;0.55;0.45;;;8.90;99.90;;;;;;4912548;28;20032;-89
2022/01/06 11:30:16;;;;;;;0.40;0.32;;;8.80;99.90;;;;;;4893151;28;20417;-86
2022/01/06 11:32:45;;;;;;;0.85;0.32;;;8.80;99.90;;;;;;4895646;28;20030;-84
2022/01/06 11:35:28;;;;;;;0.80;0.55;;;8.70;99.90;;;;;;4893059;28;20047;-85
2022/01/06 11:38:09;;;;;;;0.60;0.50;;;8.70;99.90;;;;;;4913844;29;20025;-84
2022/01/06 11:40:36;;;;;;;0.73;0.60;;;8.80;99.90;;;;;;4886024;28;20494;-94
2022/01/06 11:43:02;;;;;;;1.00;0.47;;;8.80;99.90;;;;;;4877132;28;20394;-85
2022/01/06 11:45:43;;;;;;;1.23;0.70;;;8.90;99.90;;;;;;4897159;29;20044;-85
2022/01/06 11:48:17;;;;;;;1.35;1.23;;;9.00;99.90;;;;;;4877556;28;20079;-86
2022/01/06 11:51:03;;;;;;;0.50;0.35;;;9.00;99.90;;;;;;4889080;29;20043;-87
2022/01/06 11:53:33;;;;;;;0.73;0.55;;;9.20;99.90;;;;;;4900601;29;20028;-86
2022/01/06 11:56:40;;;;;;;1.88;0.85;;;9.40;99.90;;;;;;4880233;28;20052;-92
2022/01/06 12:02:23;;;;;;;1.30;0.52;;;10.20;99.90;;;;;;4909967;28;20040;-85
2022/01/06 12:04:59;;;;;;;0.25;0.25;;;10.80;98.70;;;;;;4917235;28;20526;-88
2022/01/06 12:07:29;;;;;;;2.60;1.00;;;11.10;96.20;;;;;;4944860;28;20150;-83
2022/01/06 12:10:07;;;;;;;1.05;0.35;;;11.10;95.30;;;;;;4985007;28;20085;-84
2022/01/06 12:12:42;;;;;;;0.70;0.60;;;11.00;95.40;;;;;;4988591;28;20030;-85
2022/01/06 12:15:13;;;;;;;1.10;0.32;;;11.10;96.00;;;;;;4978244;28;20034;-83
2022/01/06 12:17:47;;;;;;;1.00;0.40;;;10.90;94.50;;;;;;4991410;28;20041;-83
2022/01/06 12:20:25;;;;;;;1.10;0.60;;;10.70;94.40;;;;;;4984136;28;20106;-83
2022/01/06 12:23:00;;;;;;;0.70;0.47;;;10.60;94.50;;;;;;4980232;28;20031;-84
2022/01/06 12:25:27;;;;;;;0.75;0.40;;;10.60;94.90;;;;;;4983348;28;20041;-84
2022/01/06 12:27:56;;;;;;;0.43;0.40;;;10.50;92.90;;;;;;4978406;28;20018;-86
2022/01/06 12:30:25;;;;;;;0.68;0.20;;;10.50;94.40;;;;;;4984908;28;20031;-83
2022/01/06 12:33:20;;;;;;;0.93;0.30;;;10.80;92.70;;;;;;4977968;28;20034;-87
2022/01/06 12:35:51;;;;;;;1.02;0.85;;;11.00;92.60;;;;;;4995823;28;20030;-84
2022/01/06 12:38:26;;;;;;;0.13;0.13;;;11.20;91.70;;;;;;4995824;28;20019;-88
2022/01/06 12:41:07;;;;;;;0.70;0.70;;;12.40;87.50;;;;;;4986441;28;20030;-86
2022/01/06 12:43:39;;;;;;;1.52;1.00;;;12.90;85.20;;;;;;4975154;28;20023;-90
2022/01/06 12:46:29;;;;;;;1.95;0.85;;;12.30;82.90;;;;;;4985526;28;20080;-88
2022/01/06 12:48:55;;;;;;;0.60;0.40;;;11.60;86.30;;;;;;4992323;28;20026;-87
2022/01/06 12:51:24;;;;;;;1.25;0.70;;;10.90;87.60;;;;;;4981657;28;20026;-88
2022/01/06 12:54:05;;;;;;;2.42;0.95;;;10.70;89.60;;;;;;4989389;28;20030;-87
2022/01/06 12:56:58;;;;;;;1.02;0.60;;;10.60;89.50;;;;;;4997457;28;20031;-89
2022/01/06 12:59:37;;;;;;;2.10;1.38;;;10.40;88.40;;;;;;4989654;28;20057;-88
2022/01/06 13:02:15;;;;;;;2.50;1.10;;;10.50;90.00;;;;;;4985499;28;20026;-87
2022/01/06 13:04:46;;;;;;;1.20;0.73;;;10.30;89.50;;;;;;4981934;28;20028;-91
2022/01/06 13:07:27;;;;;;;0.30;0.30;;;10.20;90.60;;;;;;5002363;28;20505;-87
2022/01/06 13:09:57;;;;;;;0.40;0.38;;;10.20;90.30;;;;;;4989123;28;20037;-91
2022/01/06 13:12:44;;;;;;;0.47;0.47;;;10.10;90.80;;;;;;4992624;28;20027;-93
2022/01/06 13:15:32;;;;;;;0.70;0.70;;;9.90;90.30;;;;;;4992627;28;20501;-92
2022/01/06 13:18:05;;;;;;;0.82;0.57;;;9.80;92.70;;;;;;5004621;28;20026;-92
2022/01/06 13:20:59;;;;;;;0.28;0.28;;;9.80;92.50;;;;;;4982111;28;20035;-92
2022/01/06 13:26:11;;;;;;;1.15;0.80;;;9.90;92.80;;;;;;4995190;28;20049;-90
2022/01/06 13:28:37;;;;;;;1.02;0.70;;;9.90;93.50;;;;;;4984954;28;20035;-93
2022/01/06 13:31:18;;;;;;;2.20;0.70;;;10.00;94.40;;;;;;4988727;28;20035;-88
2022/01/06 13:33:53;;;;;;;0.60;0.60;;;10.10;94.20;;;;;;4994167;28;20037;-88
2022/01/06 13:36:28;;;;;;;1.48;0.77;;;10.40;93.20;;;;;;4984670;28;20088;-89
2022/01/06 13:39:17;;;;;;;1.02;0.70;;;10.50;92.70;;;;;;4993679;28;20068;-88
2022/01/06 13:41:50;;;;;;;0.50;0.40;;;10.60;91.50;;;;;;4982646;28;20043;-89
2022/01/06 13:44:19;;;;;;;0.75;0.57;;;10.70;90.90;;;;;;4986177;28;20026;-87
2022/01/06 13:47:09;;;;;;;0.85;0.68;;;11.60;90.90;;;;;;4986721;28;20070;-89
2022/01/06 13:52:32;;;;;;;0.75;0.52;;;14.00;83.80;;;;;;4977876;28;20536;-89
2022/01/06 13:54:58;;;;;;;0.57;0.57;;;15.40;76.00;;;;;;4988072;28;20038;-89
2022/01/06 13:57:24;;;;;;;1.17;0.70;;;16.70;72.60;;;;;;4986646;28;20474;-89
2022/01/06 13:59:56;;;;;;;0.60;0.50;;;17.70;66.90;;;;;;4987247;28;20032;-90
2022/01/06 14:02:22;;;;;;;0.95;0.82;;;18.10;64.10;;;;;;4989109;28;20029;-88
2022/01/06 14:04:48;;;;;;;0.50;0.50;;;18.10;62.80;;;;;;4991175;28;20042;-89
2022/01/06 14:07:15;;;;;;;7.18;3.42;;;18.10;60.40;;;;;;4993392;28;20042;-88
2022/01/06 14:09:45;;;;;;;0.73;0.60;;;17.60;61.20;;;;;;4987409;28;20030;-89
2022/01/06 14:12:11;;;;;;;0.60;0.50;;;17.00;62.00;;;;;;4997354;28;20549;-90
2022/01/06 14:14:37;;;;;;;2.35;1.40;;;16.70;63.10;;;;;;4986142;28;20439;-89
2022/01/06 14:17:09;;;;;;;2.22;1.55;;;16.90;63.20;;;;;;4985131;28;20026;-89
2022/01/06 14:19:58;;;;;;;1.23;1.00;;;16.90;62.60;;;;;;4984233;28;20027;-89
2022/01/06 14:22:27;;;;;;;1.45;1.17;;;17.30;61.00;;;;;;4978084;28;20044;-89
2022/01/06 14:24:59;;;;;;;5.93;3.50;;;17.70;59.00;;;;;;4990091;28;20026;-88
2022/01/06 14:27:24;;;;;;;4.95;2.97;;;16.90;62.20;;;;;;4969266;28;20054;-89
2022/01/06 14:29:50;;;;;;;19.40;7.03;;;16.60;62.00;;;;;;4964660;28;20035;-89
2022/01/06 14:32:17;;;;;;;3.53;1.35;;;16.30;63.00;;;;;;4961655;28;20031;-89
2022/01/06 14:34:43;;;;;;;0.75;0.52;;;14.50;64.90;;;;;;4969070;28;20034;-87
2022/01/06 14:37:09;;;;;;;0.50;0.50;;;12.90;68.90;;;;;;4965793;28;20027;-89
2022/01/06 14:39:35;;;;;;;0.70;0.50;;;11.90;71.60;;;;;;4969861;28;20450;-90
2022/01/06 14:42:07;;;;;;;0.90;0.57;;;11.30;74.10;;;;;;4964047;28;20376;-89
2022/01/06 14:44:33;;;;;;;3.30;0.50;;;11.00;75.80;;;;;;4965110;28;20037;-89
2022/01/06 14:47:00;;;;;;;1.17;0.98;;;10.90;76.80;;;;;;4957284;28;20038;-89
2022/01/06 14:49:26;;;;;;;0.80;0.70;;;10.90;78.60;;;;;;4958741;28;20082;-89
2022/01/06 14:51:55;;;;;;;0.98;0.70;;;11.00;76.70;;;;;;4973278;28;20026;-87
2022/01/06 14:54:23;;;;;;;6.32;0.88;;;11.30;77.70;;;;;;4967941;28;20086;-89
2022/01/06 14:56:49;;;;;;;0.52;0.40;;;11.30;77.50;;;;;;4966140;28;20035;-88
2022/01/06 14:59:16;;;;;;;0.68;0.38;;;11.10;75.70;;;;;;4965198;28;20038;-89
2022/01/06 15:01:48;;;;;;;1.02;0.52;;;10.50;77.40;;;;;;4967345;28;20023;-88
2022/01/06 15:04:14;;;;;;;0.70;0.70;;;10.30;78.80;;;;;;4966823;28;20113;-88
2022/01/06 15:06:40;;;;;;;1.00;0.73;;;10.10;79.80;;;;;;4927905;28;20596;-89
2022/01/06 15:09:09;;;;;;;0.50;0.50;;;9.80;81.00;;;;;;4894356;28;20064;-89
2022/01/06 15:11:38;;;;;;;0.40;0.40;;;9.60;80.50;;;;;;4884970;28;20029;-88
2022/01/06 15:14:05;;;;;;;0.77;0.57;;;9.50;81.10;;;;;;4924801;28;20112;-87
2022/01/06 15:16:31;;;;;;;1.40;0.40;;;9.40;80.80;;;;;;4879097;28;20084;-88
2022/01/06 15:18:59;;;;;;;2.45;0.70;;;9.40;81.60;;;;;;4904151;28;20028;-88
2022/01/06 15:21:25;;;;;;;1.52;0.50;;;9.30;83.30;;;;;;4887161;28;20487;-88
2022/01/06 15:23:51;;;;;;;0.40;0.40;;;9.10;81.80;;;;;;4875906;29;20029;-88
2022/01/06 15:26:18;;;;;;;0.43;0.38;;;8.80;83.50;;;;;;4890804;28;20051;-87
2022/01/06 15:28:46;;;;;;;1.05;0.90;;;8.60;85.00;;;;;;4914406;28;20060;-89
2022/01/06 15:31:22;;;;;;;0.50;0.50;;;8.50;85.90;;;;;;4890370;28;20117;-89
2022/01/06 15:33:48;;;;;;;0.43;0.40;;;8.20;86.10;;;;;;4892968;29;20380;-88
2022/01/06 15:36:43;;;;;;;1.45;0.63;;;8.20;87.00;;;;;;4888559;28;20031;-85
2022/01/06 15:39:21;;;;;;;1.20;0.80;;;8.10;88.40;;;;;;4885382;28;20046;-86
2022/01/06 15:41:48;;;;;;;0.70;0.70;;;8.00;88.10;;;;;;4882091;29;20496;-87
2022/01/06 15:44:19;;;;;;;4.88;3.80;;;8.00;88.60;;;;;;4883747;28;20032;-86
2022/01/06 15:46:52;;;;;;;0.80;0.50;;;7.90;90.70;;;;;;4885009;29;20037;-93
2022/01/06 15:49:59;;;;;;;0.30;0.30;;;7.80;89.70;;;;;;4885442;28;20037;-91
2022/01/06 15:52:27;;;;;;;0.47;0.47;;;7.80;90.60;;;;;;4881083;28;20496;-92
2022/01/06 15:54:56;;;;;;;9.15;5.55;;;7.80;90.90;;;;;;4890072;29;20033;-94
2022/01/06 15:57:25;;;;;;;4.13;2.92;;;7.70;91.00;;;;;;4889076;28;20144;-89
2022/01/06 16:00:01;;;;;;;4.07;3.67;;;7.80;90.30;;;;;;4889245;28;20033;-86
2022/01/06 16:05:12;;;;;;;5.60;4.38;;;7.70;90.10;;;;;;4890942;29;20094;-83
2022/01/06 16:07:43;;;;;;;11.40;7.28;;;7.60;90.50;;;;;;4909349;28;20062;-82
2022/01/06 16:10:17;;;;;;;11.63;7.35;;;7.60;90.50;;;;;;4901632;29;20033;-82
2022/01/06 16:13:07;;;;;;;1.85;1.50;;;7.60;91.80;;;;;;4900374;29;20488;-82
2022/01/06 16:15:36;;;;;;;2.60;1.17;;;7.50;91.30;;;;;;4922684;28;20043;-82
2022/01/06 16:18:02;;;;;;;5.13;3.15;;;7.50;91.40;;;;;;4924047;28;20032;-87
2022/01/06 16:20:28;;;;;;;1.92;1.63;;;7.40;91.40;;;;;;4916470;28;20498;-83
2022/01/06 16:23:32;;;;;;;1.33;1.02;;;7.50;91.40;;;;;;4912664;28;20039;-87
2022/01/06 16:26:01;;;;;;;0.77;0.68;;;7.40;91.50;;;;;;4911036;28;20102;-83
2022/01/06 16:28:28;;;;;;;2.88;2.22;;;7.40;91.70;;;;;;4905951;29;20029;-81
2022/01/06 16:31:14;;;;;;;2.58;1.65;;;7.30;93.00;;;;;;4912300;28;20040;-81
2022/01/06 16:33:41;;;;;;;1.63;1.35;;;7.30;92.30;;;;;;4913518;28;20111;-82
2022/01/06 16:36:08;;;;;;;2.55;1.48;;;7.30;92.50;;;;;;4900652;28;20121;-82
2022/01/06 16:38:35;;;;;;;4.63;1.42;;;7.20;92.70;;;;;;4926405;28;20020;-80
2022/01/06 16:41:02;;;;;;;1.90;1.60;;;7.20;92.70;;;;;;4903095;28;20059;-81
2022/01/06 16:43:28;;;;;;;1.70;1.30;;;7.20;93.40;;;;;;4911062;28;20029;-82
2022/01/06 16:45:58;;;;;;;2.15;1.70;;;7.10;93.40;;;;;;4928136;28;20101;-81
2022/01/06 16:49:06;;;;;;;1.58;1.35;;;7.10;94.00;;;;;;4908914;29;20095;-81
2022/01/06 16:51:55;;;;;;;2.25;1.10;;;7.10;93.30;;;;;;4917681;28;20704;-82
2022/01/06 16:54:30;;;;;;;1.67;1.10;;;7.20;92.40;;;;;;4915555;28;20508;-82
2022/01/06 16:57:02;;;;;;;1.45;1.20;;;7.20;93.00;;;;;;4904888;28;20028;-80
2022/01/06 16:59:28;;;;;;;1.30;1.10;;;7.10;94.00;;;;;;4900788;28;20032;-80
2022/01/06 17:01:58;;;;;;;3.55;1.38;;;7.10;93.80;;;;;;4913076;28;20067;-80
2022/01/06 17:04:24;;;;;;;4.72;1.30;;;7.20;93.90;;;;;;4934455;28;20032;-82
2022/01/06 17:06:50;;;;;;;2.67;1.13;;;7.20;94.50;;;;;;4909610;28;20060;-84
2022/01/06 17:09:19;;;;;;;0.80;0.80;;;7.10;94.70;;;;;;4916652;28;20092;-83
2022/01/06 17:11:45;;;;;;;5.00;1.48;;;7.10;94.10;;;;;;4923461;28;20506;-82
2022/01/06 17:14:15;;;;;;;1.63;1.02;;;7.10;94.00;;;;;;4921066;28;20031;-82
2022/01/06 17:16:43;;;;;;;1.40;0.98;;;7.20;94.50;;;;;;4924019;28;20031;-81
2022/01/06 17:19:10;;;;;;;0.80;0.80;;;7.10;94.30;;;;;;4910093;29;20522;-81
2022/01/06 17:21:36;;;;;;;1.00;0.90;;;7.10;94.20;;;;;;4908799;28;20028;-82
2022/01/06 17:24:05;;;;;;;0.90;0.90;;;7.00;94.50;;;;;;4985186;28;20533;-81
2022/01/06 17:26:31;;;;;;;1.08;0.95;;;7.00;94.30;;;;;;4916429;28;20045;-81
2022/01/06 17:29:01;;;;;;;1.02;1.02;;;7.00;94.00;;;;;;4912972;28;20037;-81
2022/01/06 17:31:28;;;;;;;2.03;1.00;;;7.00;93.80;;;;;;4928956;28;20107;-81
2022/01/06 17:33:54;;;;;;;2.05;1.02;;;7.10;93.70;;;;;;4991158;28;20027;-82
2022/01/06 17:36:21;;;;;;;1.30;1.20;;;7.00;94.30;;;;;;4896592;29;20036;-81
2022/01/06 17:38:47;;;;;;;1.17;1.00;;;6.90;94.40;;;;;;4905726;28;20387;-81
2022/01/06 17:41:13;;;;;;;0.85;0.85;;;6.90;94.80;;;;;;4908893;29;20033;-81
2022/01/06 17:43:39;;;;;;;2.65;1.20;;;6.90;95.60;;;;;;4915783;28;20032;-81
2022/01/06 17:46:05;;;;;;;0.95;0.93;;;6.80;95.70;;;;;;4925421;28;20041;-82
2022/01/06 17:48:31;;;;;;;2.47;1.20;;;6.80;96.20;;;;;;4916285;28;20475;-81
2022/01/06 17:51:02;;;;;;;2.10;1.17;;;6.80;96.40;;;;;;4911281;28;20039;-82
2022/01/06 17:53:29;;;;;;;1.33;1.10;;;6.70;97.00;;;;;;4915302;28;20079;-81
2022/01/06 17:55:56;;;;;;;1.27;1.17;;;6.70;97.70;;;;;;4919139;28;20396;-81
2022/01/06 17:58:23;;;;;;;1.30;1.10;;;6.60;98.30;;;;;;4936135;28;20022;-82
2022/01/06 18:00:50;;;;;;;1.65;1.20;;;6.60;98.10;;;;;;4918153;28;20614;-81
2022/01/06 18:03:16;;;;;;;1.92;0.95;;;6.50;98.20;;;;;;4922146;28;20032;-81
2022/01/06 18:05:49;;;;;;;2.55;0.90;;;6.60;97.10;;;;;;4924303;28;20043;-81
2022/01/06 18:08:36;;;;;;;1.15;1.08;;;6.60;97.20;;;;;;4921597;28;20045;-81
2022/01/06 18:13:51;;;;;;;1.20;1.02;;;6.70;97.30;;;;;;4997014;28;20025;-81
2022/01/06 18:16:18;;;;;;;1.13;0.90;;;6.60;97.40;;;;;;4929007;28;20021;-81
2022/01/06 18:18:44;;;;;;;1.50;1.20;;;6.60;96.80;;;;;;4958471;28;20477;-81
2022/01/06 18:21:10;;;;;;;1.73;1.17;;;6.60;97.30;;;;;;4903167;28;20047;-81
2022/01/06 18:23:36;;;;;;;1.38;1.17;;;6.60;97.70;;;;;;4992680;28;20063;-81
2022/01/06 18:26:02;;;;;;;1.15;1.02;;;6.60;97.60;;;;;;4914115;28;20382;-81
2022/01/06 18:28:28;;;;;;;2.33;1.08;;;6.60;95.90;;;;;;4945504;28;20028;-81
2022/01/06 18:31:00;;;;;;;1.13;0.93;;;6.70;94.80;;;;;;4921131;28;20423;-81
2022/01/06 18:33:26;;;;;;;3.22;1.05;;;6.80;95.40;;;;;;4912415;28;20021;-81
2022/01/06 18:35:51;;;;;;;1.98;1.42;;;6.70;95.80;;;;;;4907870;28;20040;-81
2022/01/06 18:38:20;;;;;;;1.85;1.20;;;6.80;96.10;;;;;;4913419;29;20086;-81
2022/01/06 18:40:49;;;;;;;1.83;1.10;;;6.60;96.30;;;;;;4910424;29;20039;-81
2022/01/06 18:43:15;;;;;;;1.33;1.20;;;6.60;94.80;;;;;;4893516;28;20028;-82
2022/01/06 18:45:42;;;;;;;1.55;1.10;;;6.70;94.40;;;;;;4918422;28;20075;-81
2022/01/06 18:48:09;;;;;;;1.88;1.23;;;6.70;95.20;;;;;;4932584;28;20103;-81
2022/01/06 18:50:35;;;;;;;0.70;0.70;;;6.70;95.30;;;;;;4909563;28;20507;-80
2022/01/06 18:53:01;;;;;;;1.00;0.90;;;6.70;93.70;;;;;;4912766;28;20035;-81
2022/01/06 18:55:28;;;;;;;0.85;0.85;;;6.80;93.70;;;;;;4914250;28;20017;-85
2022/01/06 18:57:54;;;;;;;0.80;0.80;;;6.90;94.00;;;;;;4949979;28;20175;-81
2022/01/06 19:00:20;;;;;;;0.80;0.80;;;6.90;92.70;;;;;;4901323;28;20028;-82
2022/01/06 19:02:46;;;;;;;2.13;0.98;;;6.90;93.20;;;;;;4908737;28;20040;-81
2022/01/06 19:05:11;;;;;;;0.80;0.80;;;6.80;94.00;;;;;;4898230;28;20044;-81
2022/01/06 19:07:40;;;;;;;1.05;0.90;;;6.80;94.80;;;;;;4925228;28;20072;-81
2022/01/06 19:10:10;;;;;;;1.40;0.98;;;6.70;94.60;;;;;;4901679;28;20035;-81
2022/01/06 19:12:36;;;;;;;1.13;0.75;;;6.70;94.70;;;;;;4912290;28;20032;-81
2022/01/06 19:15:02;;;;;;;1.27;0.70;;;6.90;93.90;;;;;;4906959;28;20034;-81
2022/01/06 19:17:28;;;;;;;1.48;0.73;;;6.90;94.00;;;;;;4955283;28;20052;-81
2022/01/06 19:19:55;;;;;;;0.80;0.60;;;6.90;94.20;;;;;;4912620;28;20061;-81
2022/01/06 19:22:22;;;;;;;0.85;0.77;;;6.80;95.00;;;;;;4908694;29;20032;-80
2022/01/06 19:24:50;;;;;;;1.17;1.02;;;6.90;94.50;;;;;;4906739;28;20115;-80
2022/01/06 19:27:16;;;;;;;1.25;0.90;;;6.90;94.50;;;;;;4892654;28;20505;-81
2022/01/06 19:29:42;;;;;;;2.17;1.13;;;6.90;95.10;;;;;;4903000;28;20062;-81